sensor_id;sensor_type;location;lat;lon;timestamp;P1;durP1;ratioP1;P2;durP2;ratioP2
2404;SDS011;1213;43.206;27.922;2022-07-30T00:01:04;6.47;;;4.67;;
2404;SDS011;1213;43.206;27.922;2022-07-30T00:03:29;5.90;;;4.57;;
2404;SDS011;1213;43.206;27.922;2022-07-30T00:05:55;5.23;;;4.20;;
2404;SDS011;1213;43.206;27.922;2022-07-30T00:08:21;7.53;;;5.03;;
2404;SDS011;1213;43.206;27.922;2022-07-30T00:10:47;4.50;;;4.10;;
2404;SDS011;1213;43.206;27.922;2022-07-30T00:13:13;5.53;;;5.03;;
2404;SDS011;1213;43.206;27.922;2022-07-30T00:15:39;6.13;;;5.20;;
2404;SDS011;1213;43.206;27.922;2022-07-30T00:18:04;5.30;;;4.80;;
2404;SDS011;1213;43.206;27.922;2022-07-30T00:20:30;5.97;;;5.03;;
2404;SDS011;1213;43.206;27.922;2022-07-30T00:22:55;6.83;;;5.70;;
2404;SDS011;1213;43.206;27.922;2022-07-30T00:25:21;6.27;;;4.97;;
2404;SDS011;1213;43.206;27.922;2022-07-30T00:27:47;6.33;;;4.87;;
2404;SDS011;1213;43.206;27.922;2022-07-30T00:30:12;6.40;;;4.90;;
2404;SDS011;1213;43.206;27.922;2022-07-30T00:32:38;6.20;;;5.13;;
2404;SDS011;1213;43.206;27.922;2022-07-30T00:35:04;5.83;;;5.23;;
2404;SDS011;1213;43.206;27.922;2022-07-30T00:37:31;7.17;;;5.50;;
2404;SDS011;1213;43.206;27.922;2022-07-30T00:39:56;5.57;;;5.00;;
2404;SDS011;1213;43.206;27.922;2022-07-30T00:42:22;11.40;;;5.87;;
2404;SDS011;1213;43.206;27.922;2022-07-30T00:44:53;6.03;;;4.87;;
2404;SDS011;1213;43.206;27.922;2022-07-30T00:47:19;6.03;;;5.27;;
2404;SDS011;1213;43.206;27.922;2022-07-30T00:49:45;10.07;;;6.20;;
2404;SDS011;1213;43.206;27.922;2022-07-30T00:52:11;5.70;;;5.20;;
2404;SDS011;1213;43.206;27.922;2022-07-30T00:54:37;6.40;;;5.43;;
2404;SDS011;1213;43.206;27.922;2022-07-30T00:57:03;7.87;;;5.83;;
2404;SDS011;1213;43.206;27.922;2022-07-30T00:59:28;8.40;;;6.07;;
2404;SDS011;1213;43.206;27.922;2022-07-30T01:01:55;6.23;;;5.30;;
2404;SDS011;1213;43.206;27.922;2022-07-30T01:04:21;7.10;;;6.40;;
2404;SDS011;1213;43.206;27.922;2022-07-30T01:06:46;9.53;;;5.43;;
2404;SDS011;1213;43.206;27.922;2022-07-30T01:09:12;7.67;;;5.90;;
2404;SDS011;1213;43.206;27.922;2022-07-30T01:11:38;7.80;;;6.20;;
2404;SDS011;1213;43.206;27.922;2022-07-30T01:14:05;7.23;;;5.40;;
2404;SDS011;1213;43.206;27.922;2022-07-30T01:16:33;6.97;;;5.67;;
2404;SDS011;1213;43.206;27.922;2022-07-30T01:19:01;8.43;;;5.73;;
2404;SDS011;1213;43.206;27.922;2022-07-30T01:21:50;6.37;;;5.77;;
2404;SDS011;1213;43.206;27.922;2022-07-30T01:24:29;6.77;;;6.07;;
2404;SDS011;1213;43.206;27.922;2022-07-30T01:27:00;9.03;;;6.53;;
2404;SDS011;1213;43.206;27.922;2022-07-30T01:29:27;8.20;;;5.97;;
2404;SDS011;1213;43.206;27.922;2022-07-30T01:31:55;10.23;;;6.10;;
2404;SDS011;1213;43.206;27.922;2022-07-30T01:34:25;11.53;;;6.37;;
2404;SDS011;1213;43.206;27.922;2022-07-30T01:36:54;7.50;;;5.80;;
2404;SDS011;1213;43.206;27.922;2022-07-30T01:39:22;8.57;;;6.70;;
2404;SDS011;1213;43.206;27.922;2022-07-30T01:41:52;8.40;;;7.20;;
2404;SDS011;1213;43.206;27.922;2022-07-30T01:44:18;7.70;;;5.43;;
2404;SDS011;1213;43.206;27.922;2022-07-30T01:46:46;8.30;;;6.67;;
2404;SDS011;1213;43.206;27.922;2022-07-30T01:49:12;8.47;;;6.80;;
2404;SDS011;1213;43.206;27.922;2022-07-30T01:51:39;10.13;;;7.37;;
2404;SDS011;1213;43.206;27.922;2022-07-30T01:54:07;10.50;;;6.70;;
2404;SDS011;1213;43.206;27.922;2022-07-30T01:56:34;7.80;;;5.97;;
2404;SDS011;1213;43.206;27.922;2022-07-30T01:59:01;7.83;;;5.83;;
2404;SDS011;1213;43.206;27.922;2022-07-30T02:01:28;9.80;;;6.13;;
2404;SDS011;1213;43.206;27.922;2022-07-30T02:03:55;7.47;;;6.20;;
2404;SDS011;1213;43.206;27.922;2022-07-30T02:06:25;7.80;;;5.77;;
2404;SDS011;1213;43.206;27.922;2022-07-30T02:08:57;7.13;;;6.43;;
2404;SDS011;1213;43.206;27.922;2022-07-30T02:11:25;8.80;;;6.33;;
2404;SDS011;1213;43.206;27.922;2022-07-30T02:14:52;9.70;;;6.20;;
2404;SDS011;1213;43.206;27.922;2022-07-30T02:17:03;9.37;;;6.93;;
2404;SDS011;1213;43.206;27.922;2022-07-30T02:19:32;7.23;;;5.30;;
2404;SDS011;1213;43.206;27.922;2022-07-30T02:22:03;11.13;;;6.60;;
2404;SDS011;1213;43.206;27.922;2022-07-30T02:24:32;9.37;;;6.30;;
2404;SDS011;1213;43.206;27.922;2022-07-30T02:27:02;6.17;;;5.57;;
2404;SDS011;1213;43.206;27.922;2022-07-30T02:29:33;6.57;;;5.80;;
2404;SDS011;1213;43.206;27.922;2022-07-30T02:32:01;7.60;;;6.80;;
2404;SDS011;1213;43.206;27.922;2022-07-30T02:34:35;8.30;;;5.90;;
2404;SDS011;1213;43.206;27.922;2022-07-30T02:37:03;6.43;;;5.60;;
2404;SDS011;1213;43.206;27.922;2022-07-30T02:39:32;5.27;;;4.80;;
2404;SDS011;1213;43.206;27.922;2022-07-30T02:41:58;8.37;;;6.37;;
2404;SDS011;1213;43.206;27.922;2022-07-30T02:44:25;9.47;;;6.43;;
2404;SDS011;1213;43.206;27.922;2022-07-30T02:46:53;6.67;;;5.60;;
2404;SDS011;1213;43.206;27.922;2022-07-30T02:49:20;6.93;;;5.67;;
2404;SDS011;1213;43.206;27.922;2022-07-30T02:51:48;9.73;;;6.77;;
2404;SDS011;1213;43.206;27.922;2022-07-30T02:54:17;7.80;;;6.50;;
2404;SDS011;1213;43.206;27.922;2022-07-30T02:56:47;12.00;;;7.70;;
2404;SDS011;1213;43.206;27.922;2022-07-30T02:59:14;8.00;;;6.37;;
2404;SDS011;1213;43.206;27.922;2022-07-30T03:01:43;11.67;;;7.47;;
2404;SDS011;1213;43.206;27.922;2022-07-30T03:04:10;10.00;;;7.60;;
2404;SDS011;1213;43.206;27.922;2022-07-30T03:06:38;9.90;;;7.17;;
2404;SDS011;1213;43.206;27.922;2022-07-30T03:09:05;6.63;;;5.73;;
2404;SDS011;1213;43.206;27.922;2022-07-30T03:11:31;7.97;;;6.60;;
2404;SDS011;1213;43.206;27.922;2022-07-30T03:13:58;8.57;;;6.67;;
2404;SDS011;1213;43.206;27.922;2022-07-30T03:16:24;7.30;;;6.30;;
2404;SDS011;1213;43.206;27.922;2022-07-30T03:18:52;7.53;;;5.40;;
2404;SDS011;1213;43.206;27.922;2022-07-30T03:21:19;7.57;;;5.57;;
2404;SDS011;1213;43.206;27.922;2022-07-30T03:23:49;8.90;;;6.30;;
2404;SDS011;1213;43.206;27.922;2022-07-30T03:26:18;11.63;;;5.47;;
2404;SDS011;1213;43.206;27.922;2022-07-30T03:28:46;12.17;;;7.37;;
2404;SDS011;1213;43.206;27.922;2022-07-30T03:31:14;7.80;;;6.43;;
2404;SDS011;1213;43.206;27.922;2022-07-30T03:33:40;9.37;;;6.40;;
2404;SDS011;1213;43.206;27.922;2022-07-30T03:36:07;7.70;;;6.63;;
2404;SDS011;1213;43.206;27.922;2022-07-30T03:38:37;9.00;;;5.40;;
2404;SDS011;1213;43.206;27.922;2022-07-30T03:41:05;8.20;;;5.60;;
2404;SDS011;1213;43.206;27.922;2022-07-30T03:43:32;8.23;;;6.47;;
2404;SDS011;1213;43.206;27.922;2022-07-30T03:45:59;9.53;;;6.20;;
2404;SDS011;1213;43.206;27.922;2022-07-30T03:48:26;11.57;;;6.23;;
2404;SDS011;1213;43.206;27.922;2022-07-30T03:50:52;11.70;;;6.00;;
2404;SDS011;1213;43.206;27.922;2022-07-30T03:53:18;9.40;;;6.67;;
2404;SDS011;1213;43.206;27.922;2022-07-30T03:55:48;9.20;;;6.50;;
2404;SDS011;1213;43.206;27.922;2022-07-30T03:58:14;10.77;;;7.57;;
2404;SDS011;1213;43.206;27.922;2022-07-30T04:00:39;11.37;;;8.07;;
2404;SDS011;1213;43.206;27.922;2022-07-30T04:03:05;8.53;;;6.90;;
2404;SDS011;1213;43.206;27.922;2022-07-30T04:05:31;9.27;;;6.90;;
2404;SDS011;1213;43.206;27.922;2022-07-30T04:07:57;8.43;;;6.90;;
2404;SDS011;1213;43.206;27.922;2022-07-30T04:10:22;9.90;;;7.73;;
2404;SDS011;1213;43.206;27.922;2022-07-30T04:12:48;10.27;;;7.30;;
2404;SDS011;1213;43.206;27.922;2022-07-30T04:15:13;9.93;;;7.90;;
2404;SDS011;1213;43.206;27.922;2022-07-30T04:17:43;9.67;;;7.70;;
2404;SDS011;1213;43.206;27.922;2022-07-30T04:20:15;13.13;;;8.60;;
2404;SDS011;1213;43.206;27.922;2022-07-30T04:22:44;9.97;;;7.50;;
2404;SDS011;1213;43.206;27.922;2022-07-30T04:25:11;9.57;;;8.07;;
2404;SDS011;1213;43.206;27.922;2022-07-30T04:27:38;11.07;;;8.47;;
2404;SDS011;1213;43.206;27.922;2022-07-30T04:30:04;10.77;;;7.90;;
2404;SDS011;1213;43.206;27.922;2022-07-30T04:32:30;8.73;;;7.60;;
2404;SDS011;1213;43.206;27.922;2022-07-30T04:34:56;12.90;;;7.60;;
2404;SDS011;1213;43.206;27.922;2022-07-30T04:37:23;10.60;;;6.50;;
2404;SDS011;1213;43.206;27.922;2022-07-30T04:39:51;11.90;;;7.30;;
2404;SDS011;1213;43.206;27.922;2022-07-30T04:42:24;13.03;;;8.07;;
2404;SDS011;1213;43.206;27.922;2022-07-30T04:44:51;9.60;;;7.20;;
2404;SDS011;1213;43.206;27.922;2022-07-30T04:47:17;8.97;;;7.30;;
2404;SDS011;1213;43.206;27.922;2022-07-30T04:49:43;11.07;;;7.50;;
2404;SDS011;1213;43.206;27.922;2022-07-30T04:52:10;10.13;;;7.53;;
2404;SDS011;1213;43.206;27.922;2022-07-30T04:54:39;9.80;;;7.53;;
2404;SDS011;1213;43.206;27.922;2022-07-30T04:57:11;8.17;;;6.80;;
2404;SDS011;1213;43.206;27.922;2022-07-30T04:59:38;10.27;;;7.10;;
2404;SDS011;1213;43.206;27.922;2022-07-30T05:02:05;8.27;;;6.60;;
2404;SDS011;1213;43.206;27.922;2022-07-30T05:04:31;10.57;;;8.37;;
2404;SDS011;1213;43.206;27.922;2022-07-30T05:07:00;12.27;;;8.50;;
2404;SDS011;1213;43.206;27.922;2022-07-30T05:09:27;9.37;;;7.67;;
2404;SDS011;1213;43.206;27.922;2022-07-30T05:11:53;12.30;;;7.40;;
2404;SDS011;1213;43.206;27.922;2022-07-30T05:14:21;8.77;;;6.00;;
2404;SDS011;1213;43.206;27.922;2022-07-30T05:16:50;10.77;;;6.97;;
2404;SDS011;1213;43.206;27.922;2022-07-30T05:19:17;9.47;;;7.47;;
2404;SDS011;1213;43.206;27.922;2022-07-30T05:21:43;6.70;;;5.67;;
2404;SDS011;1213;43.206;27.922;2022-07-30T05:24:09;8.43;;;7.07;;
2404;SDS011;1213;43.206;27.922;2022-07-30T05:26:36;11.33;;;6.93;;
2404;SDS011;1213;43.206;27.922;2022-07-30T05:29:02;8.77;;;7.27;;
2404;SDS011;1213;43.206;27.922;2022-07-30T05:31:27;9.87;;;8.53;;
2404;SDS011;1213;43.206;27.922;2022-07-30T05:33:53;9.73;;;7.20;;
2404;SDS011;1213;43.206;27.922;2022-07-30T05:36:19;12.83;;;7.63;;
2404;SDS011;1213;43.206;27.922;2022-07-30T05:38:45;12.67;;;7.73;;
2404;SDS011;1213;43.206;27.922;2022-07-30T05:41:12;7.90;;;7.10;;
2404;SDS011;1213;43.206;27.922;2022-07-30T05:43:38;9.90;;;7.37;;
2404;SDS011;1213;43.206;27.922;2022-07-30T05:46:03;9.70;;;7.67;;
2404;SDS011;1213;43.206;27.922;2022-07-30T05:48:29;9.20;;;7.47;;
2404;SDS011;1213;43.206;27.922;2022-07-30T05:50:55;8.57;;;6.60;;
2404;SDS011;1213;43.206;27.922;2022-07-30T05:53:21;11.03;;;7.70;;
2404;SDS011;1213;43.206;27.922;2022-07-30T05:55:46;6.40;;;5.50;;
2404;SDS011;1213;43.206;27.922;2022-07-30T05:58:12;9.57;;;7.07;;
2404;SDS011;1213;43.206;27.922;2022-07-30T06:00:37;7.27;;;5.23;;
2404;SDS011;1213;43.206;27.922;2022-07-30T06:03:03;11.10;;;8.20;;
2404;SDS011;1213;43.206;27.922;2022-07-30T06:05:28;10.53;;;6.63;;
2404;SDS011;1213;43.206;27.922;2022-07-30T06:07:56;9.60;;;6.47;;
2404;SDS011;1213;43.206;27.922;2022-07-30T06:10:22;8.27;;;6.77;;
2404;SDS011;1213;43.206;27.922;2022-07-30T06:12:47;9.17;;;7.17;;
2404;SDS011;1213;43.206;27.922;2022-07-30T06:15:13;7.20;;;6.33;;
2404;SDS011;1213;43.206;27.922;2022-07-30T06:17:45;8.43;;;6.10;;
2404;SDS011;1213;43.206;27.922;2022-07-30T06:20:12;7.47;;;6.53;;
2404;SDS011;1213;43.206;27.922;2022-07-30T06:22:39;6.43;;;5.83;;
2404;SDS011;1213;43.206;27.922;2022-07-30T06:25:06;7.20;;;5.50;;
2404;SDS011;1213;43.206;27.922;2022-07-30T06:27:32;9.60;;;6.43;;
2404;SDS011;1213;43.206;27.922;2022-07-30T06:29:59;8.23;;;6.57;;
2404;SDS011;1213;43.206;27.922;2022-07-30T06:32:24;9.27;;;6.00;;
2404;SDS011;1213;43.206;27.922;2022-07-30T06:34:50;6.53;;;5.33;;
2404;SDS011;1213;43.206;27.922;2022-07-30T06:37:15;8.00;;;6.00;;
2404;SDS011;1213;43.206;27.922;2022-07-30T06:39:41;8.10;;;5.63;;
2404;SDS011;1213;43.206;27.922;2022-07-30T06:42:06;6.87;;;5.20;;
2404;SDS011;1213;43.206;27.922;2022-07-30T06:44:32;11.60;;;6.80;;
2404;SDS011;1213;43.206;27.922;2022-07-30T06:46:58;9.60;;;6.27;;
2404;SDS011;1213;43.206;27.922;2022-07-30T06:49:23;8.00;;;7.17;;
2404;SDS011;1213;43.206;27.922;2022-07-30T06:51:49;6.90;;;5.97;;
2404;SDS011;1213;43.206;27.922;2022-07-30T06:54:15;6.67;;;5.10;;
2404;SDS011;1213;43.206;27.922;2022-07-30T06:56:40;7.97;;;6.20;;
2404;SDS011;1213;43.206;27.922;2022-07-30T06:59:06;7.47;;;5.80;;
2404;SDS011;1213;43.206;27.922;2022-07-30T07:01:31;7.37;;;4.57;;
2404;SDS011;1213;43.206;27.922;2022-07-30T07:03:57;7.03;;;5.00;;
2404;SDS011;1213;43.206;27.922;2022-07-30T07:06:22;6.07;;;5.33;;
2404;SDS011;1213;43.206;27.922;2022-07-30T07:08:48;6.57;;;5.30;;
2404;SDS011;1213;43.206;27.922;2022-07-30T07:11:13;8.53;;;6.13;;
2404;SDS011;1213;43.206;27.922;2022-07-30T07:13:39;8.17;;;6.83;;
2404;SDS011;1213;43.206;27.922;2022-07-30T07:16:04;7.33;;;6.00;;
2404;SDS011;1213;43.206;27.922;2022-07-30T07:18:30;6.80;;;5.33;;
2404;SDS011;1213;43.206;27.922;2022-07-30T07:20:55;7.90;;;5.90;;
2404;SDS011;1213;43.206;27.922;2022-07-30T07:23:22;10.10;;;5.90;;
2404;SDS011;1213;43.206;27.922;2022-07-30T07:25:47;6.73;;;5.23;;
2404;SDS011;1213;43.206;27.922;2022-07-30T07:28:13;7.50;;;6.03;;
2404;SDS011;1213;43.206;27.922;2022-07-30T07:30:39;7.70;;;6.03;;
2404;SDS011;1213;43.206;27.922;2022-07-30T07:33:08;6.70;;;4.90;;
2404;SDS011;1213;43.206;27.922;2022-07-30T07:35:34;7.47;;;5.10;;
2404;SDS011;1213;43.206;27.922;2022-07-30T07:38:00;5.40;;;4.90;;
2404;SDS011;1213;43.206;27.922;2022-07-30T07:40:26;8.80;;;6.67;;
2404;SDS011;1213;43.206;27.922;2022-07-30T07:42:52;9.00;;;5.70;;
2404;SDS011;1213;43.206;27.922;2022-07-30T07:45:17;7.13;;;5.30;;
2404;SDS011;1213;43.206;27.922;2022-07-30T07:47:44;6.13;;;5.50;;
2404;SDS011;1213;43.206;27.922;2022-07-30T07:50:10;7.00;;;5.60;;
2404;SDS011;1213;43.206;27.922;2022-07-30T07:52:36;6.27;;;5.67;;
2404;SDS011;1213;43.206;27.922;2022-07-30T07:55:02;7.20;;;6.10;;
2404;SDS011;1213;43.206;27.922;2022-07-30T07:57:27;6.37;;;5.17;;
2404;SDS011;1213;43.206;27.922;2022-07-30T07:59:53;7.50;;;4.90;;
2404;SDS011;1213;43.206;27.922;2022-07-30T08:02:19;6.33;;;5.70;;
2404;SDS011;1213;43.206;27.922;2022-07-30T08:04:45;4.80;;;4.40;;
2404;SDS011;1213;43.206;27.922;2022-07-30T08:07:11;6.50;;;4.90;;
2404;SDS011;1213;43.206;27.922;2022-07-30T08:09:36;7.57;;;5.13;;
2404;SDS011;1213;43.206;27.922;2022-07-30T08:12:02;7.27;;;5.03;;
2404;SDS011;1213;43.206;27.922;2022-07-30T08:14:28;5.27;;;4.80;;
2404;SDS011;1213;43.206;27.922;2022-07-30T08:16:53;4.30;;;3.57;;
2404;SDS011;1213;43.206;27.922;2022-07-30T08:19:19;5.80;;;4.57;;
2404;SDS011;1213;43.206;27.922;2022-07-30T08:21:44;5.03;;;4.40;;
2404;SDS011;1213;43.206;27.922;2022-07-30T08:24:10;5.30;;;4.80;;
2404;SDS011;1213;43.206;27.922;2022-07-30T08:26:35;7.30;;;4.50;;
2404;SDS011;1213;43.206;27.922;2022-07-30T08:29:01;5.10;;;4.43;;
2404;SDS011;1213;43.206;27.922;2022-07-30T08:31:26;5.97;;;4.80;;
2404;SDS011;1213;43.206;27.922;2022-07-30T08:33:52;6.57;;;4.90;;
2404;SDS011;1213;43.206;27.922;2022-07-30T08:36:17;6.10;;;4.97;;
2404;SDS011;1213;43.206;27.922;2022-07-30T08:38:43;5.40;;;3.60;;
2404;SDS011;1213;43.206;27.922;2022-07-30T08:41:08;6.17;;;4.53;;
2404;SDS011;1213;43.206;27.922;2022-07-30T08:43:34;4.13;;;3.73;;
2404;SDS011;1213;43.206;27.922;2022-07-30T08:46:01;6.53;;;4.83;;
2404;SDS011;1213;43.206;27.922;2022-07-30T08:48:29;4.83;;;4.03;;
2404;SDS011;1213;43.206;27.922;2022-07-30T08:50:55;4.97;;;4.47;;
2404;SDS011;1213;43.206;27.922;2022-07-30T08:53:21;7.00;;;5.40;;
2404;SDS011;1213;43.206;27.922;2022-07-30T08:55:49;5.50;;;4.90;;
2404;SDS011;1213;43.206;27.922;2022-07-30T08:58:20;4.90;;;4.10;;
2404;SDS011;1213;43.206;27.922;2022-07-30T09:00:53;4.70;;;3.80;;
2404;SDS011;1213;43.206;27.922;2022-07-30T09:03:19;6.20;;;4.43;;
2404;SDS011;1213;43.206;27.922;2022-07-30T09:05:45;6.30;;;4.90;;
2404;SDS011;1213;43.206;27.922;2022-07-30T09:08:10;5.90;;;4.80;;
2404;SDS011;1213;43.206;27.922;2022-07-30T09:10:36;5.30;;;4.60;;
2404;SDS011;1213;43.206;27.922;2022-07-30T09:13:02;5.83;;;4.57;;
2404;SDS011;1213;43.206;27.922;2022-07-30T09:15:27;6.07;;;5.03;;
2404;SDS011;1213;43.206;27.922;2022-07-30T09:18:00;4.93;;;4.43;;
2404;SDS011;1213;43.206;27.922;2022-07-30T09:22:58;5.60;;;4.33;;
2404;SDS011;1213;43.206;27.922;2022-07-30T09:25:34;4.70;;;4.30;;
2404;SDS011;1213;43.206;27.922;2022-07-30T09:28:02;5.23;;;4.73;;
2404;SDS011;1213;43.206;27.922;2022-07-30T09:30:45;5.00;;;4.50;;
2404;SDS011;1213;43.206;27.922;2022-07-30T09:35:56;4.53;;;3.60;;
2404;SDS011;1213;43.206;27.922;2022-07-30T09:38:21;4.27;;;3.87;;
2404;SDS011;1213;43.206;27.922;2022-07-30T09:40:51;3.80;;;3.50;;
2404;SDS011;1213;43.206;27.922;2022-07-30T09:43:17;4.43;;;3.80;;
2404;SDS011;1213;43.206;27.922;2022-07-30T09:45:50;4.40;;;4.00;;
2404;SDS011;1213;43.206;27.922;2022-07-30T09:48:23;4.50;;;3.90;;
2404;SDS011;1213;43.206;27.922;2022-07-30T09:50:51;9.13;;;4.93;;
2404;SDS011;1213;43.206;27.922;2022-07-30T09:53:17;4.93;;;4.07;;
2404;SDS011;1213;43.206;27.922;2022-07-30T09:55:44;5.07;;;4.57;;
2404;SDS011;1213;43.206;27.922;2022-07-30T09:58:10;4.60;;;4.17;;
2404;SDS011;1213;43.206;27.922;2022-07-30T10:00:37;5.13;;;4.73;;
2404;SDS011;1213;43.206;27.922;2022-07-30T10:03:18;4.43;;;3.93;;
2404;SDS011;1213;43.206;27.922;2022-07-30T10:05:53;4.33;;;3.93;;
2404;SDS011;1213;43.206;27.922;2022-07-30T10:08:45;4.47;;;3.77;;
2404;SDS011;1213;43.206;27.922;2022-07-30T10:11:12;7.00;;;5.10;;
2404;SDS011;1213;43.206;27.922;2022-07-30T10:13:39;5.73;;;4.47;;
2404;SDS011;1213;43.206;27.922;2022-07-30T10:16:06;5.13;;;4.43;;
2404;SDS011;1213;43.206;27.922;2022-07-30T10:18:32;5.90;;;4.73;;
2404;SDS011;1213;43.206;27.922;2022-07-30T10:20:58;3.80;;;3.50;;
2404;SDS011;1213;43.206;27.922;2022-07-30T10:23:25;4.70;;;4.30;;
2404;SDS011;1213;43.206;27.922;2022-07-30T10:25:56;4.47;;;4.03;;
2404;SDS011;1213;43.206;27.922;2022-07-30T10:28:23;4.77;;;4.10;;
2404;SDS011;1213;43.206;27.922;2022-07-30T10:30:49;3.83;;;3.23;;
2404;SDS011;1213;43.206;27.922;2022-07-30T10:33:16;4.60;;;4.20;;
2404;SDS011;1213;43.206;27.922;2022-07-30T10:35:42;5.10;;;4.60;;
2404;SDS011;1213;43.206;27.922;2022-07-30T10:38:09;5.13;;;4.40;;
2404;SDS011;1213;43.206;27.922;2022-07-30T10:40:38;5.13;;;4.47;;
2404;SDS011;1213;43.206;27.922;2022-07-30T10:49:23;4.97;;;4.47;;
2404;SDS011;1213;43.206;27.922;2022-07-30T10:51:50;4.47;;;3.67;;
2404;SDS011;1213;43.206;27.922;2022-07-30T10:57:07;4.30;;;3.90;;
2404;SDS011;1213;43.206;27.922;2022-07-30T11:02:26;4.30;;;3.90;;
2404;SDS011;1213;43.206;27.922;2022-07-30T11:07:47;4.20;;;3.63;;
2404;SDS011;1213;43.206;27.922;2022-07-30T11:13:05;4.50;;;4.10;;
2404;SDS011;1213;43.206;27.922;2022-07-30T11:18:15;4.07;;;3.70;;
2404;SDS011;1213;43.206;27.922;2022-07-30T11:20:40;4.40;;;4.00;;
2404;SDS011;1213;43.206;27.922;2022-07-30T11:23:51;3.40;;;3.10;;
2404;SDS011;1213;43.206;27.922;2022-07-30T11:25:52;3.20;;;2.90;;
2404;SDS011;1213;43.206;27.922;2022-07-30T11:31:23;4.00;;;3.60;;
2404;SDS011;1213;43.206;27.922;2022-07-30T11:34:12;3.80;;;3.50;;
2404;SDS011;1213;43.206;27.922;2022-07-30T11:37:04;3.60;;;3.30;;
2404;SDS011;1213;43.206;27.922;2022-07-30T11:47:44;3.73;;;3.30;;
2404;SDS011;1213;43.206;27.922;2022-07-30T11:50:24;3.47;;;3.20;;
2404;SDS011;1213;43.206;27.922;2022-07-30T11:52:55;3.63;;;2.87;;
2404;SDS011;1213;43.206;27.922;2022-07-30T11:58:03;3.17;;;2.87;;
2404;SDS011;1213;43.206;27.922;2022-07-30T12:00:37;4.43;;;3.20;;
2404;SDS011;1213;43.206;27.922;2022-07-30T12:03:12;7.57;;;4.63;;
2404;SDS011;1213;43.206;27.922;2022-07-30T12:05:39;3.73;;;2.80;;
2404;SDS011;1213;43.206;27.922;2022-07-30T12:08:06;4.13;;;3.60;;
2404;SDS011;1213;43.206;27.922;2022-07-30T12:10:31;4.33;;;3.93;;
2404;SDS011;1213;43.206;27.922;2022-07-30T12:13:13;4.47;;;3.50;;
2404;SDS011;1213;43.206;27.922;2022-07-30T12:15:41;5.17;;;3.40;;
2404;SDS011;1213;43.206;27.922;2022-07-30T12:18:08;4.07;;;3.60;;
2404;SDS011;1213;43.206;27.922;2022-07-30T12:20:38;3.90;;;3.53;;
2404;SDS011;1213;43.206;27.922;2022-07-30T12:23:10;5.07;;;4.53;;
2404;SDS011;1213;43.206;27.922;2022-07-30T12:25:42;4.20;;;3.40;;
2404;SDS011;1213;43.206;27.922;2022-07-30T12:28:08;7.00;;;4.23;;
2404;SDS011;1213;43.206;27.922;2022-07-30T12:30:40;4.60;;;4.20;;
2404;SDS011;1213;43.206;27.922;2022-07-30T12:33:06;4.07;;;3.67;;
2404;SDS011;1213;43.206;27.922;2022-07-30T12:35:42;7.23;;;3.87;;
2404;SDS011;1213;43.206;27.922;2022-07-30T12:38:10;4.17;;;3.77;;
2404;SDS011;1213;43.206;27.922;2022-07-30T12:44:07;4.83;;;4.33;;
2404;SDS011;1213;43.206;27.922;2022-07-30T12:46:26;9.00;;;8.20;;
2404;SDS011;1213;43.206;27.922;2022-07-30T12:48:53;5.20;;;3.63;;
2404;SDS011;1213;43.206;27.922;2022-07-30T12:51:25;3.87;;;3.57;;
2404;SDS011;1213;43.206;27.922;2022-07-30T12:53:54;4.27;;;3.87;;
2404;SDS011;1213;43.206;27.922;2022-07-30T12:56:22;6.17;;;4.53;;
2404;SDS011;1213;43.206;27.922;2022-07-30T12:58:49;4.60;;;4.20;;
2404;SDS011;1213;43.206;27.922;2022-07-30T13:01:16;4.17;;;3.67;;
2404;SDS011;1213;43.206;27.922;2022-07-30T13:03:42;4.33;;;3.93;;
2404;SDS011;1213;43.206;27.922;2022-07-30T13:06:16;5.77;;;4.63;;
2404;SDS011;1213;43.206;27.922;2022-07-30T13:08:53;8.33;;;5.03;;
2404;SDS011;1213;43.206;27.922;2022-07-30T13:11:23;5.80;;;4.30;;
2404;SDS011;1213;43.206;27.922;2022-07-30T13:13:52;5.50;;;4.90;;
2404;SDS011;1213;43.206;27.922;2022-07-30T13:16:18;4.37;;;3.97;;
2404;SDS011;1213;43.206;27.922;2022-07-30T13:18:44;5.33;;;4.13;;
2404;SDS011;1213;43.206;27.922;2022-07-30T13:21:11;6.73;;;4.83;;
2404;SDS011;1213;43.206;27.922;2022-07-30T13:23:37;5.10;;;4.30;;
2404;SDS011;1213;43.206;27.922;2022-07-30T13:26:05;6.63;;;4.93;;
2404;SDS011;1213;43.206;27.922;2022-07-30T13:28:31;6.30;;;4.80;;
2404;SDS011;1213;43.206;27.922;2022-07-30T13:30:58;4.93;;;4.33;;
2404;SDS011;1213;43.206;27.922;2022-07-30T13:33:25;6.67;;;4.23;;
2404;SDS011;1213;43.206;27.922;2022-07-30T13:35:50;6.47;;;4.70;;
2404;SDS011;1213;43.206;27.922;2022-07-30T13:38:16;4.83;;;4.33;;
2404;SDS011;1213;43.206;27.922;2022-07-30T13:40:41;6.50;;;5.90;;
2404;SDS011;1213;43.206;27.922;2022-07-30T13:43:07;5.40;;;4.60;;
2404;SDS011;1213;43.206;27.922;2022-07-30T13:45:33;7.27;;;5.20;;
2404;SDS011;1213;43.206;27.922;2022-07-30T13:47:58;5.10;;;4.30;;
2404;SDS011;1213;43.206;27.922;2022-07-30T13:50:24;4.30;;;3.90;;
2404;SDS011;1213;43.206;27.922;2022-07-30T13:52:50;5.57;;;5.07;;
2404;SDS011;1213;43.206;27.922;2022-07-30T13:55:15;5.97;;;4.17;;
2404;SDS011;1213;43.206;27.922;2022-07-30T13:57:41;5.20;;;4.63;;
2404;SDS011;1213;43.206;27.922;2022-07-30T14:00:07;6.30;;;5.07;;
2404;SDS011;1213;43.206;27.922;2022-07-30T14:02:33;5.23;;;4.70;;
2404;SDS011;1213;43.206;27.922;2022-07-30T14:04:59;8.80;;;4.97;;
2404;SDS011;1213;43.206;27.922;2022-07-30T14:07:31;4.77;;;4.37;;
2404;SDS011;1213;43.206;27.922;2022-07-30T14:09:57;5.77;;;4.73;;
2404;SDS011;1213;43.206;27.922;2022-07-30T14:12:22;4.37;;;3.97;;
2404;SDS011;1213;43.206;27.922;2022-07-30T14:14:48;4.60;;;4.13;;
2404;SDS011;1213;43.206;27.922;2022-07-30T14:17:13;5.67;;;4.53;;
2404;SDS011;1213;43.206;27.922;2022-07-30T14:19:39;5.27;;;4.80;;
2404;SDS011;1213;43.206;27.922;2022-07-30T14:22:04;4.67;;;4.27;;
2404;SDS011;1213;43.206;27.922;2022-07-30T14:24:30;5.13;;;4.63;;
2404;SDS011;1213;43.206;27.922;2022-07-30T14:26:55;4.77;;;4.30;;
2404;SDS011;1213;43.206;27.922;2022-07-30T14:29:21;4.90;;;4.40;;
2404;SDS011;1213;43.206;27.922;2022-07-30T14:31:46;5.80;;;5.20;;
2404;SDS011;1213;43.206;27.922;2022-07-30T14:34:12;5.67;;;4.17;;
2404;SDS011;1213;43.206;27.922;2022-07-30T14:36:37;5.23;;;4.73;;
2404;SDS011;1213;43.206;27.922;2022-07-30T14:39:03;4.93;;;4.20;;
2404;SDS011;1213;43.206;27.922;2022-07-30T14:41:28;6.33;;;5.20;;
2404;SDS011;1213;43.206;27.922;2022-07-30T14:43:55;6.70;;;4.97;;
2404;SDS011;1213;43.206;27.922;2022-07-30T14:46:21;4.97;;;4.47;;
2404;SDS011;1213;43.206;27.922;2022-07-30T14:48:47;6.63;;;4.60;;
2404;SDS011;1213;43.206;27.922;2022-07-30T14:51:13;7.30;;;4.40;;
2404;SDS011;1213;43.206;27.922;2022-07-30T14:53:38;6.20;;;5.57;;
2404;SDS011;1213;43.206;27.922;2022-07-30T14:56:04;8.80;;;5.07;;
2404;SDS011;1213;43.206;27.922;2022-07-30T14:58:30;4.37;;;3.97;;
2404;SDS011;1213;43.206;27.922;2022-07-30T15:00:55;6.03;;;5.43;;
2404;SDS011;1213;43.206;27.922;2022-07-30T15:03:21;7.00;;;4.33;;
2404;SDS011;1213;43.206;27.922;2022-07-30T15:05:46;5.63;;;5.03;;
2404;SDS011;1213;43.206;27.922;2022-07-30T15:08:12;6.97;;;5.53;;
2404;SDS011;1213;43.206;27.922;2022-07-30T15:10:40;5.63;;;5.03;;
2404;SDS011;1213;43.206;27.922;2022-07-30T15:13:06;4.63;;;4.23;;
2404;SDS011;1213;43.206;27.922;2022-07-30T15:15:31;7.40;;;5.10;;
2404;SDS011;1213;43.206;27.922;2022-07-30T15:17:58;5.97;;;5.47;;
2404;SDS011;1213;43.206;27.922;2022-07-30T15:20:24;4.97;;;4.57;;
2404;SDS011;1213;43.206;27.922;2022-07-30T15:22:50;5.30;;;4.73;;
2404;SDS011;1213;43.206;27.922;2022-07-30T15:25:15;9.33;;;5.20;;
2404;SDS011;1213;43.206;27.922;2022-07-30T15:27:41;5.70;;;5.23;;
2404;SDS011;1213;43.206;27.922;2022-07-30T15:30:06;5.43;;;4.83;;
2404;SDS011;1213;43.206;27.922;2022-07-30T15:32:32;5.60;;;5.10;;
2404;SDS011;1213;43.206;27.922;2022-07-30T15:34:58;7.20;;;5.70;;
2404;SDS011;1213;43.206;27.922;2022-07-30T15:37:23;5.90;;;4.87;;
2404;SDS011;1213;43.206;27.922;2022-07-30T15:39:49;5.13;;;4.63;;
2404;SDS011;1213;43.206;27.922;2022-07-30T15:42:15;5.57;;;4.97;;
2404;SDS011;1213;43.206;27.922;2022-07-30T15:44:40;6.73;;;6.03;;